EST,Max TemperatureF,Mean TemperatureF,Min TemperatureF,Max Dew PointF,MeanDew PointF,Min DewpointF,Max Humidity, Mean Humidity, Min Humidity, Max Sea Level PressureIn, Mean Sea Level PressureIn, Min Sea Level PressureIn, Max VisibilityMiles, Mean VisibilityMiles, Min VisibilityMiles, Max Wind SpeedMPH, Mean Wind SpeedMPH, Max Gust SpeedMPH,PrecipitationIn, CloudCover, Events, WindDirDegrees
2012-11-1,42,40,37,38,36,31,92,83,73,29.81,29.73,29.67,10,8,2,18,10,25,0.06,8,Rain,256
2012-11-2,42,40,37,32,29,27,82,73,64,30.05,29.90,29.76,10,10,10,20,10,29,T,7,,278
2012-11-3,43,40,36,31,30,28,82,72,62,30.16,30.11,30.03,10,10,10,14,6,18,T,8,Rain,284
2012-11-4,39,37,34,32,28,26,89,74,59,30.16,30.14,30.10,10,10,10,14,6,17,0.00,8,,332
2012-11-5,39,37,34,30,27,23,82,71,59,30.20,30.16,30.11,10,10,10,9,4,12,0.00,8,,320
2012-11-6,49,38,27,28,25,22,78,60,42,30.17,30.06,29.95,10,10,10,10,6,14,0.00,0,,65
2012-11-7,41,35,28,27,25,23,85,70,54,30.08,29.99,29.93,10,10,8,12,5,18,0.00,0,,36
2012-11-8,45,34,23,29,26,21,92,73,53,30.22,30.17,30.08,10,9,5,14,4,20,0.00,1,,277
2012-11-9,55,42,29,34,30,27,92,69,45,30.29,30.23,30.19,10,8,4,14,5,17,0.00,0,,197
2012-11-10,66,54,42,39,35,30,89,59,29,30.27,30.23,30.17,10,10,7,16,7,21,0.05,4,Rain,161
2012-11-11,70,62,54,36,32,27,46,36,26,30.36,30.26,30.18,10,10,10,20,8,24,0.00,0,,170
2012-11-12,70,52,34,54,43,29,93,65,36,30.37,30.16,29.96,10,8,2,31,16,43,0.23,5,Rain,234
2012-11-13,38,34,29,27,23,19,82,67,52,30.56,30.46,30.35,10,10,10,20,6,24,0.00,5,,286
2012-11-14,39,34,28,25,24,23,85,72,59,30.58,30.51,30.40,10,10,10,10,7,16,0.00,2,,57
2012-11-15,48,35,22,27,25,21,88,65,42,30.39,30.35,30.32,10,10,6,7,1,9,0.00,0,,340
2012-11-16,50,38,26,33,28,24,92,69,46,30.51,30.43,30.35,10,9,5,12,3,14,0.00,0,,359
2012-11-17,54,41,28,30,27,24,92,64,35,30.61,30.56,30.51,10,9,5,16,7,20,0.00,0,,58
2012-11-18,56,45,33,29,26,24,69,50,30,30.55,30.50,30.45,10,10,10,10,6,15,0.00,0,,85
2012-11-19,53,41,28,33,30,26,85,65,44,30.43,30.34,30.21,10,10,8,8,2,9,0.00,0,,42
2012-11-20,55,44,33,36,32,28,96,67,38,30.21,30.16,30.11,10,9,5,6,0,7,0.00,2,,80
2012-11-21,59,46,33,36,27,17,89,55,21,30.26,30.22,30.15,10,10,6,6,1,8,0.00,1,,320
2012-11-22,60,46,31,34,29,23,72,51,30,30.27,30.18,30.04,10,10,10,13,5,15,0.00,0,,179
2012-11-23,51,41,30,45,30,18,86,61,35,30.05,29.94,29.82,10,10,9,32,16,45,0.01,6,Rain,233
2012-11-24,32,31,29,23,21,18,75,67,58,30.14,30.07,30.01,10,8,2,21,12,26,T,8,Snow,265
2012-11-25,40,34,28,21,18,17,63,52,40,30.10,30.01,29.90,10,10,10,17,10,24,0.00,4,,232
2012-11-26,47,39,31,26,23,20,72,55,37,30.22,30.16,30.04,10,10,10,10,4,13,0.00,4,,278
2012-11-27,37,35,32,31,26,21,89,72,54,30.33,30.27,30.21,10,7,1,13,5,14,0.01,8,Snow,345
2012-11-28,41,35,29,22,20,16,69,53,37,30.40,30.34,30.25,10,10,9,20,9,24,0.00,4,,255
2012-11-29,45,36,26,23,20,19,75,56,37,30.44,30.37,30.31,10,10,8,16,7,20,0.00,0,,195
2012-11-30,55,45,34,29,25,21,56,46,35,30.30,30.26,30.21,10,10,10,17,7,22,0.00,3,,179